Time;durP1;ratioP1;P1;durP2;ratioP2;P2;SDS_P1;SDS_P2;PMS_P1;PMS_P2;Temp;Humidity;BMP_temperature;BMP_pressure;BME280_temperature;BME280_humidity;BME280_pressure;Samples;Min_cycle;Max_cycle;Signal;HPM_P1;HPM_P2
2023/06/25 00:02:05;;;;;;;8.15;5.63;;;15.10;92.30;;;;;;5018439;28;20109;-71
2023/06/25 00:04:33;;;;;;;7.63;5.30;;;15.10;91.80;;;;;;5018433;28;20026;-72
2023/06/25 00:06:59;;;;;;;8.02;5.28;;;15.30;91.00;;;;;;5011583;28;20060;-72
2023/06/25 00:09:27;;;;;;;9.63;5.72;;;15.30;92.10;;;;;;5009723;28;20029;-71
2023/06/25 00:11:53;;;;;;;7.70;5.40;;;15.30;91.90;;;;;;5016290;28;20061;-72
2023/06/25 00:14:18;;;;;;;7.90;5.50;;;15.20;92.30;;;;;;5018062;28;20072;-71
2023/06/25 00:16:44;;;;;;;7.78;5.20;;;15.20;91.90;;;;;;5000493;28;20030;-73
2023/06/25 00:19:17;;;;;;;10.10;5.55;;;15.20;92.30;;;;;;5013496;28;20017;-72
2023/06/25 00:21:42;;;;;;;7.07;4.97;;;15.10;92.70;;;;;;5017403;28;20030;-73
2023/06/25 00:24:08;;;;;;;9.30;5.45;;;15.00;93.10;;;;;;5015425;28;20026;-71
2023/06/25 00:26:33;;;;;;;10.23;5.60;;;14.80;93.50;;;;;;5009546;28;20032;-71
2023/06/25 00:28:59;;;;;;;10.63;5.78;;;14.80;93.40;;;;;;5017521;28;20049;-72
2023/06/25 00:31:24;;;;;;;9.20;5.80;;;14.80;93.40;;;;;;5017430;28;20433;-72
2023/06/25 00:33:50;;;;;;;8.35;5.93;;;14.80;93.60;;;;;;5018505;28;20296;-72
2023/06/25 00:36:15;;;;;;;8.18;5.85;;;14.80;93.50;;;;;;5016820;28;20419;-72
2023/06/25 00:38:42;;;;;;;8.75;5.68;;;14.70;93.60;;;;;;5017463;28;20038;-72
2023/06/25 00:41:09;;;;;;;7.50;5.50;;;14.60;93.90;;;;;;5003374;28;20049;-72
2023/06/25 00:43:41;;;;;;;8.35;5.70;;;14.50;93.70;;;;;;5019112;28;20025;-72
2023/06/25 00:46:12;;;;;;;8.10;5.50;;;14.60;94.20;;;;;;5018226;28;20029;-73
2023/06/25 00:48:40;;;;;;;7.65;5.45;;;14.60;94.10;;;;;;5018457;28;20032;-72
2023/06/25 00:51:05;;;;;;;9.60;5.78;;;14.50;94.60;;;;;;4998028;28;20428;-72
2023/06/25 00:53:34;;;;;;;9.27;6.45;;;14.50;94.80;;;;;;5013854;28;20026;-73
2023/06/25 00:56:00;;;;;;;7.72;5.65;;;14.40;94.90;;;;;;5018818;28;20029;-73
2023/06/25 00:58:25;;;;;;;8.23;5.53;;;14.40;94.90;;;;;;5018723;28;20449;-73
2023/06/25 01:00:54;;;;;;;8.75;5.43;;;14.60;93.20;;;;;;5017815;28;20030;-73
2023/06/25 01:03:30;;;;;;;8.57;5.80;;;14.90;91.70;;;;;;5018764;28;20026;-72
2023/06/25 01:06:18;;;;;;;8.35;5.90;;;15.20;91.60;;;;;;4998598;28;20034;-72
2023/06/25 01:08:50;;;;;;;7.63;5.43;;;15.20;91.10;;;;;;5017973;28;20030;-72
2023/06/25 01:11:16;;;;;;;10.63;5.93;;;15.20;91.60;;;;;;5008163;28;20034;-72
2023/06/25 01:13:42;;;;;;;8.48;5.80;;;15.10;91.60;;;;;;5000989;28;20640;-73
2023/06/25 01:16:08;;;;;;;10.60;6.00;;;15.10;90.70;;;;;;5018239;28;20446;-72
2023/06/25 01:18:39;;;;;;;8.40;5.32;;;15.10;91.20;;;;;;5017542;28;20037;-72
2023/06/25 01:21:05;;;;;;;8.55;5.78;;;15.10;91.40;;;;;;5016203;28;20041;-73
2023/06/25 01:23:33;;;;;;;7.97;5.18;;;15.00;91.60;;;;;;5013385;28;20032;-72
2023/06/25 01:25:59;;;;;;;8.90;5.68;;;15.00;91.10;;;;;;5022975;28;20026;-72
2023/06/25 01:28:25;;;;;;;9.15;5.90;;;15.00;90.90;;;;;;5013995;28;20143;-72
2023/06/25 01:30:51;;;;;;;8.38;5.47;;;15.10;91.00;;;;;;5017524;28;20415;-72
2023/06/25 01:33:19;;;;;;;7.82;5.30;;;15.10;90.70;;;;;;5000852;28;20084;-72
2023/06/25 01:35:44;;;;;;;8.13;5.30;;;15.30;90.00;;;;;;5000177;28;20034;-72
2023/06/25 01:38:10;;;;;;;8.20;5.63;;;15.30;90.30;;;;;;5012483;28;20040;-73
2023/06/25 01:40:36;;;;;;;8.80;5.65;;;15.40;89.30;;;;;;4999702;28;20023;-73
2023/06/25 01:43:02;;;;;;;7.38;5.22;;;15.40;90.40;;;;;;5017687;28;20461;-72
2023/06/25 01:45:28;;;;;;;8.07;5.18;;;15.40;90.50;;;;;;5016735;28;20026;-74
2023/06/25 01:47:58;;;;;;;9.40;5.45;;;15.30;89.80;;;;;;5017337;28;20114;-72
2023/06/25 01:50:23;;;;;;;8.13;5.47;;;15.30;90.80;;;;;;5014375;28;20049;-72
2023/06/25 01:52:49;;;;;;;7.22;5.38;;;15.10;91.30;;;;;;5015080;28;20426;-73
2023/06/25 01:55:14;;;;;;;9.00;5.78;;;15.00;91.00;;;;;;5016637;28;20030;-73
2023/06/25 01:57:40;;;;;;;7.15;5.28;;;14.90;90.90;;;;;;5016348;28;20064;-73
2023/06/25 02:00:08;;;;;;;8.40;5.55;;;15.00;90.10;;;;;;4999403;28;20125;-72
2023/06/25 02:02:33;;;;;;;10.88;5.53;;;15.10;89.90;;;;;;5016180;28;20026;-72
2023/06/25 02:04:59;;;;;;;8.48;5.72;;;15.20;89.80;;;;;;5015807;28;20318;-72
2023/06/25 02:07:24;;;;;;;7.80;5.15;;;15.30;89.10;;;;;;4997941;28;20034;-73
2023/06/25 02:09:50;;;;;;;9.60;5.68;;;15.50;88.80;;;;;;5016198;28;20434;-75
2023/06/25 02:12:16;;;;;;;7.57;5.30;;;15.50;88.70;;;;;;4999398;28;20521;-72
2023/06/25 02:14:41;;;;;;;7.80;5.22;;;15.60;88.20;;;;;;5016406;28;20042;-73
2023/06/25 02:17:07;;;;;;;9.85;5.82;;;15.60;88.20;;;;;;5016307;28;20022;-73
2023/06/25 02:19:32;;;;;;;7.88;5.53;;;15.50;88.10;;;;;;5016584;28;20033;-73
2023/06/25 02:21:58;;;;;;;7.97;5.43;;;15.70;87.40;;;;;;5013836;28;20030;-72
2023/06/25 02:24:23;;;;;;;8.82;5.70;;;15.80;87.30;;;;;;5015278;28;20386;-73
2023/06/25 02:26:52;;;;;;;9.02;5.55;;;15.90;86.70;;;;;;5014510;28;20410;-72
2023/06/25 02:29:17;;;;;;;9.00;5.80;;;16.00;86.80;;;;;;5013406;28;20026;-72
2023/06/25 02:31:43;;;;;;;9.85;5.40;;;16.00;86.70;;;;;;5014027;28;20030;-73
2023/06/25 02:34:09;;;;;;;10.10;5.70;;;16.10;86.20;;;;;;5015375;28;20113;-73
2023/06/25 02:36:34;;;;;;;9.35;5.97;;;16.00;86.30;;;;;;5013146;28;20026;-73
2023/06/25 02:39:00;;;;;;;9.48;5.97;;;15.90;87.00;;;;;;5015037;28;20026;-73
2023/06/25 02:41:26;;;;;;;9.32;5.85;;;15.90;87.30;;;;;;5015906;28;20124;-73
2023/06/25 02:43:51;;;;;;;8.30;5.55;;;15.90;87.00;;;;;;4997740;28;20304;-74
2023/06/25 02:46:17;;;;;;;9.07;5.82;;;15.90;87.00;;;;;;5013404;28;20041;-73
2023/06/25 02:48:42;;;;;;;9.05;5.65;;;15.70;88.10;;;;;;4998253;28;20037;-73
2023/06/25 02:51:09;;;;;;;8.50;5.80;;;15.70;87.60;;;;;;5013611;28;20083;-73
2023/06/25 02:53:35;;;;;;;7.50;5.57;;;15.80;86.90;;;;;;5010047;28;20026;-72
2023/06/25 02:56:01;;;;;;;8.00;5.40;;;15.90;86.70;;;;;;5014875;28;20458;-72
2023/06/25 02:58:27;;;;;;;8.52;5.47;;;15.90;86.60;;;;;;5014517;28;20045;-72
2023/06/25 03:00:52;;;;;;;8.77;5.50;;;15.90;87.00;;;;;;5012649;28;20030;-75
2023/06/25 03:03:18;;;;;;;8.07;5.60;;;15.90;86.80;;;;;;5015785;28;20022;-73
2023/06/25 03:05:43;;;;;;;7.95;5.45;;;15.70;88.20;;;;;;5023153;28;20021;-72
2023/06/25 03:08:12;;;;;;;8.25;5.85;;;15.50;88.90;;;;;;5014428;28;20034;-73
2023/06/25 03:10:37;;;;;;;7.35;5.35;;;15.40;89.00;;;;;;5015159;28;20038;-73
2023/06/25 03:13:04;;;;;;;8.70;5.20;;;15.20;89.40;;;;;;5014974;28;20029;-73
2023/06/25 03:15:29;;;;;;;8.63;5.80;;;15.20;89.00;;;;;;5013251;28;20034;-72
2023/06/25 03:17:55;;;;;;;8.10;5.57;;;15.30;88.40;;;;;;5013689;28;20033;-73
2023/06/25 03:20:20;;;;;;;9.68;5.47;;;15.40;88.30;;;;;;4996572;28;20029;-73
2023/06/25 03:22:46;;;;;;;9.75;5.78;;;15.40;88.90;;;;;;4995985;28;20304;-73
2023/06/25 03:25:12;;;;;;;9.38;5.90;;;15.20;89.50;;;;;;5014358;28;20056;-73
2023/06/25 03:27:38;;;;;;;7.97;5.50;;;15.10;90.00;;;;;;5016006;28;20029;-72
2023/06/25 03:30:05;;;;;;;10.30;5.88;;;15.10;90.10;;;;;;5014540;28;20030;-73
2023/06/25 03:32:30;;;;;;;8.07;5.95;;;15.00;90.60;;;;;;5014114;28;20133;-73
2023/06/25 03:34:56;;;;;;;8.60;5.95;;;14.90;90.70;;;;;;5013944;28;20109;-73
2023/06/25 03:37:22;;;;;;;8.68;5.97;;;15.00;90.70;;;;;;4996433;28;20080;-73
2023/06/25 03:39:48;;;;;;;8.93;5.85;;;15.00;90.90;;;;;;5015233;28;20018;-73
2023/06/25 03:42:13;;;;;;;9.23;6.05;;;14.90;91.30;;;;;;5014011;28;20121;-73
2023/06/25 03:44:50;;;;;;;8.65;5.78;;;14.80;91.30;;;;;;4996995;28;20084;-73
2023/06/25 03:47:15;;;;;;;10.00;6.57;;;14.80;91.60;;;;;;5013876;28;20026;-73
2023/06/25 03:49:43;;;;;;;9.13;5.80;;;14.70;92.30;;;;;;5012975;28;20138;-73
2023/06/25 03:52:08;;;;;;;9.55;5.97;;;14.60;92.50;;;;;;5014021;28;20407;-73
2023/06/25 03:54:34;;;;;;;8.80;5.93;;;14.40;93.10;;;;;;5014065;28;20033;-73
2023/06/25 03:56:59;;;;;;;7.97;5.22;;;14.30;93.60;;;;;;4998017;28;20034;-73
2023/06/25 03:59:25;;;;;;;8.77;5.88;;;14.20;93.80;;;;;;5015029;28;20018;-73
2023/06/25 04:01:50;;;;;;;7.78;5.80;;;14.10;94.30;;;;;;5014707;28;20128;-73
2023/06/25 04:04:16;;;;;;;8.48;6.00;;;14.00;94.70;;;;;;5013721;28;20044;-73
2023/06/25 04:06:41;;;;;;;10.18;6.13;;;14.00;94.90;;;;;;5012145;28;20041;-73
2023/06/25 04:09:07;;;;;;;10.05;6.20;;;13.90;95.00;;;;;;5014378;28;20036;-72
2023/06/25 04:11:33;;;;;;;9.43;6.55;;;13.90;95.40;;;;;;5013843;28;20080;-72
2023/06/25 04:13:59;;;;;;;8.55;5.95;;;13.90;95.40;;;;;;5015361;28;20058;-72
2023/06/25 04:16:24;;;;;;;8.13;6.20;;;13.90;95.40;;;;;;5014385;28;20022;-72
2023/06/25 04:18:50;;;;;;;8.23;6.07;;;13.80;95.60;;;;;;5013509;28;20411;-73
2023/06/25 04:21:15;;;;;;;8.27;6.00;;;13.80;95.60;;;;;;5012622;28;20026;-73
2023/06/25 04:23:41;;;;;;;12.25;6.22;;;13.80;95.80;;;;;;5013919;28;20034;-72
2023/06/25 04:26:06;;;;;;;9.35;5.57;;;13.80;96.00;;;;;;5013503;28;20057;-73
2023/06/25 04:28:32;;;;;;;9.80;6.43;;;13.80;96.20;;;;;;5014935;28;20430;-72
2023/06/25 04:30:58;;;;;;;9.38;5.78;;;13.80;96.20;;;;;;5014117;28;20041;-73
2023/06/25 04:33:23;;;;;;;9.77;6.05;;;13.90;96.10;;;;;;5013174;28;20029;-73
2023/06/25 04:35:49;;;;;;;9.52;5.63;;;13.90;96.00;;;;;;5013143;28;20044;-73
2023/06/25 04:38:15;;;;;;;8.98;5.70;;;14.00;95.90;;;;;;4997434;28;20145;-73
2023/06/25 04:40:40;;;;;;;8.68;5.63;;;14.10;95.80;;;;;;5013332;28;20426;-73
2023/06/25 04:43:07;;;;;;;9.48;6.10;;;14.20;95.80;;;;;;5012858;28;20177;-73
2023/06/25 04:45:33;;;;;;;11.90;6.10;;;14.20;95.90;;;;;;5018080;28;20117;-73
2023/06/25 04:47:58;;;;;;;8.43;5.75;;;14.20;95.90;;;;;;5016312;28;20034;-73
2023/06/25 04:50:24;;;;;;;9.05;6.03;;;14.20;96.00;;;;;;5018276;28;20437;-73
2023/06/25 04:52:49;;;;;;;8.05;5.90;;;14.30;95.90;;;;;;5015694;28;20108;-72
2023/06/25 04:55:15;;;;;;;8.65;5.68;;;14.30;95.80;;;;;;5017958;28;20061;-73
2023/06/25 04:57:40;;;;;;;9.43;5.90;;;14.40;95.70;;;;;;5017909;28;20169;-73
2023/06/25 05:00:06;;;;;;;8.50;5.72;;;14.40;95.70;;;;;;5016321;28;20022;-73
2023/06/25 05:02:32;;;;;;;8.00;5.70;;;14.50;95.70;;;;;;5016768;28;20300;-73
2023/06/25 05:04:57;;;;;;;8.02;5.47;;;14.50;95.90;;;;;;5017869;28;20037;-73
2023/06/25 05:07:23;;;;;;;8.50;5.78;;;14.50;96.10;;;;;;5016438;28;20323;-73
2023/06/25 05:09:49;;;;;;;7.50;5.55;;;14.50;96.10;;;;;;5016895;28;20037;-73
2023/06/25 05:12:14;;;;;;;8.85;5.40;;;14.60;96.30;;;;;;5000098;28;20129;-72
2023/06/25 05:14:40;;;;;;;8.57;5.90;;;14.60;96.30;;;;;;5016984;28;20084;-72
2023/06/25 05:17:05;;;;;;;7.75;5.50;;;14.70;96.30;;;;;;5016458;28;20037;-73
2023/06/25 05:19:31;;;;;;;7.65;5.47;;;14.80;96.30;;;;;;5016133;28;20042;-73
2023/06/25 05:21:56;;;;;;;8.40;5.70;;;15.00;96.10;;;;;;4995374;28;20065;-73
2023/06/25 05:24:22;;;;;;;7.40;5.38;;;15.10;96.00;;;;;;5017214;28;20473;-72
2023/06/25 05:26:47;;;;;;;8.38;5.72;;;15.30;95.80;;;;;;5016998;28;20033;-72
2023/06/25 05:29:13;;;;;;;11.45;5.95;;;15.40;95.30;;;;;;4999676;28;20050;-71
2023/06/25 05:31:39;;;;;;;8.05;5.25;;;15.60;95.10;;;;;;5012893;28;20026;-73
2023/06/25 05:34:04;;;;;;;7.85;5.53;;;15.80;95.00;;;;;;5017257;28;20116;-72
2023/06/25 05:36:30;;;;;;;8.65;5.43;;;15.90;94.40;;;;;;5013180;28;20037;-73
2023/06/25 05:38:55;;;;;;;9.32;5.85;;;16.10;94.00;;;;;;5016517;28;20189;-72
2023/06/25 05:41:21;;;;;;;8.23;5.28;;;16.30;93.80;;;;;;5016028;28;20030;-72
2023/06/25 05:43:46;;;;;;;7.90;5.95;;;16.50;93.10;;;;;;5015030;28;20030;-73
2023/06/25 05:46:13;;;;;;;8.40;5.13;;;16.60;92.60;;;;;;5017047;28;20058;-72
2023/06/25 05:48:43;;;;;;;8.38;5.82;;;16.80;92.70;;;;;;5014096;28;20454;-73
2023/06/25 05:51:09;;;;;;;9.38;6.20;;;17.00;92.70;;;;;;4997042;28;20125;-72
2023/06/25 05:53:40;;;;;;;9.75;6.38;;;17.20;92.30;;;;;;5006991;28;20113;-73
2023/06/25 05:56:06;;;;;;;8.65;5.68;;;17.30;92.20;;;;;;5016285;28;20022;-73
2023/06/25 05:58:33;;;;;;;9.70;6.20;;;17.40;92.20;;;;;;5016077;28;20018;-72
2023/06/25 06:00:59;;;;;;;8.80;6.53;;;17.60;91.80;;;;;;5016308;28;20096;-73
2023/06/25 06:03:24;;;;;;;7.80;6.03;;;17.70;91.50;;;;;;4999124;28;20032;-73
2023/06/25 06:05:50;;;;;;;12.30;6.68;;;17.90;90.40;;;;;;5027347;28;20030;-72
2023/06/25 06:08:15;;;;;;;10.10;6.93;;;18.00;90.10;;;;;;5015371;28;20041;-72
2023/06/25 06:10:44;;;;;;;10.40;6.38;;;18.20;90.20;;;;;;5014376;28;20042;-72
2023/06/25 06:13:09;;;;;;;9.48;6.00;;;18.30;89.40;;;;;;5014935;28;20030;-72
2023/06/25 06:15:35;;;;;;;11.30;6.75;;;18.50;89.10;;;;;;5013923;28;20434;-73
2023/06/25 06:18:00;;;;;;;9.02;6.03;;;18.70;89.70;;;;;;5015245;28;20030;-72
2023/06/25 06:20:26;;;;;;;8.38;6.30;;;18.70;89.00;;;;;;5016818;28;20110;-72
2023/06/25 06:22:51;;;;;;;8.02;5.82;;;18.70;89.00;;;;;;5016041;28;20296;-73
2023/06/25 06:25:17;;;;;;;9.18;5.90;;;18.90;88.30;;;;;;5014756;28;20308;-73
2023/06/25 06:27:42;;;;;;;8.43;5.50;;;19.00;86.60;;;;;;5013627;28;20427;-73
2023/06/25 06:30:08;;;;;;;7.93;5.75;;;19.30;84.00;;;;;;5014170;28;20022;-73
2023/06/25 06:32:34;;;;;;;7.35;5.10;;;19.50;85.90;;;;;;5014350;28;20022;-72
2023/06/25 06:34:59;;;;;;;7.95;5.75;;;19.70;81.70;;;;;;5013978;28;20087;-73
2023/06/25 06:37:25;;;;;;;8.05;5.15;;;20.00;80.90;;;;;;5015306;28;20079;-75
2023/06/25 06:39:50;;;;;;;7.75;5.10;;;20.20;78.70;;;;;;5011638;28;20026;-73
2023/06/25 06:42:16;;;;;;;7.68;5.13;;;20.40;78.60;;;;;;5020413;28;20045;-73
2023/06/25 06:44:45;;;;;;;9.20;5.30;;;20.50;78.10;;;;;;5012878;28;20030;-72
2023/06/25 06:47:10;;;;;;;7.63;4.75;;;20.70;77.20;;;;;;5012111;28;20038;-72
2023/06/25 06:49:36;;;;;;;9.95;5.55;;;20.80;76.60;;;;;;5015011;28;20442;-72
2023/06/25 06:52:01;;;;;;;7.20;5.13;;;20.90;76.40;;;;;;5015458;28;20030;-74
2023/06/25 06:54:30;;;;;;;8.30;4.90;;;20.90;75.80;;;;;;5014351;28;20115;-72
2023/06/25 06:56:55;;;;;;;9.50;5.45;;;21.10;75.00;;;;;;5013905;28;20220;-73
2023/06/25 06:59:21;;;;;;;8.82;5.50;;;21.10;75.10;;;;;;5013827;28;20389;-73
2023/06/25 07:01:46;;;;;;;9.43;5.25;;;21.30;74.60;;;;;;5011243;28;20042;-72
2023/06/25 07:04:12;;;;;;;7.32;4.95;;;21.30;75.20;;;;;;5016131;28;20037;-72
2023/06/25 07:06:37;;;;;;;9.45;5.80;;;21.40;74.20;;;;;;5013163;28;20037;-72
2023/06/25 07:09:03;;;;;;;8.60;5.88;;;21.50;73.90;;;;;;5006716;28;20026;-73
2023/06/25 07:11:28;;;;;;;9.10;5.30;;;21.60;74.10;;;;;;5014102;28;20433;-73
2023/06/25 07:13:54;;;;;;;7.88;4.90;;;21.70;74.20;;;;;;4996774;28;20343;-73
2023/06/25 07:16:20;;;;;;;8.43;5.35;;;21.80;73.60;;;;;;5013492;28;20092;-73
2023/06/25 07:18:45;;;;;;;8.90;5.30;;;21.90;74.00;;;;;;4997909;28;20068;-72
2023/06/25 07:21:11;;;;;;;9.57;5.32;;;22.00;73.80;;;;;;5009947;28;20030;-72
2023/06/25 07:23:37;;;;;;;6.65;4.55;;;22.10;72.10;;;;;;5013325;28;20330;-72
2023/06/25 07:26:03;;;;;;;7.70;5.13;;;22.50;71.90;;;;;;5020013;28;20040;-72
2023/06/25 07:28:31;;;;;;;6.93;4.75;;;23.20;70.10;;;;;;5013929;28;20065;-73
2023/06/25 07:30:57;;;;;;;7.40;4.88;;;23.70;69.60;;;;;;5022863;28;20059;-73
2023/06/25 07:33:23;;;;;;;7.65;5.03;;;24.30;67.40;;;;;;5011161;28;20049;-73
2023/06/25 07:35:48;;;;;;;7.53;4.65;;;24.80;67.10;;;;;;5011101;28;20375;-72
2023/06/25 07:38:14;;;;;;;7.68;4.35;;;25.10;66.00;;;;;;5011455;28;20327;-72
2023/06/25 07:40:40;;;;;;;7.22;4.93;;;25.30;64.90;;;;;;5007525;28;20315;-75
2023/06/25 07:43:06;;;;;;;7.22;4.40;;;25.80;64.80;;;;;;5020186;28;20034;-73
2023/06/25 07:45:32;;;;;;;6.32;4.32;;;25.90;62.40;;;;;;5013371;28;20041;-73
2023/06/25 07:47:57;;;;;;;7.65;4.70;;;25.70;63.40;;;;;;5012566;28;20033;-72
2023/06/25 07:50:23;;;;;;;7.60;4.70;;;26.00;63.00;;;;;;5009462;28;20049;-72
2023/06/25 07:52:48;;;;;;;7.07;4.65;;;26.20;61.70;;;;;;5012875;28;20041;-72
2023/06/25 07:55:14;;;;;;;7.47;4.45;;;26.50;61.00;;;;;;5013864;28;20030;-74
2023/06/25 07:57:39;;;;;;;8.30;4.63;;;26.50;61.20;;;;;;5012075;28;20022;-72
2023/06/25 08:00:06;;;;;;;6.60;4.43;;;26.50;61.50;;;;;;5009379;28;20168;-73
2023/06/25 08:02:32;;;;;;;8.85;4.63;;;26.30;60.60;;;;;;5010069;28;20323;-73
2023/06/25 08:04:57;;;;;;;8.35;4.25;;;26.20;61.40;;;;;;5011078;28;20030;-73
2023/06/25 08:07:23;;;;;;;7.47;4.63;;;26.90;60.70;;;;;;5016419;28;20037;-73
2023/06/25 08:09:49;;;;;;;6.88;4.85;;;27.20;59.90;;;;;;5021219;28;20022;-73
2023/06/25 08:12:14;;;;;;;6.13;4.30;;;27.50;59.50;;;;;;5010044;28;20026;-72
2023/06/25 08:14:40;;;;;;;6.57;4.28;;;27.80;58.40;;;;;;5007710;28;20048;-73
2023/06/25 08:17:06;;;;;;;7.63;4.70;;;28.00;58.10;;;;;;5010389;28;20449;-72
2023/06/25 08:19:31;;;;;;;7.20;4.63;;;28.30;57.20;;;;;;5013248;28;20022;-73
2023/06/25 08:21:57;;;;;;;8.15;4.70;;;28.40;57.90;;;;;;4996497;28;20025;-73
2023/06/25 08:24:22;;;;;;;7.97;4.78;;;28.40;57.10;;;;;;5015798;28;20034;-73
2023/06/25 08:26:48;;;;;;;6.85;4.68;;;28.10;57.80;;;;;;5009630;28;20030;-73
2023/06/25 08:29:13;;;;;;;7.05;4.55;;;28.60;57.90;;;;;;5011868;28;20100;-73
2023/06/25 08:31:39;;;;;;;7.22;4.95;;;28.70;56.50;;;;;;5015470;28;20038;-73
2023/06/25 08:34:04;;;;;;;5.88;4.47;;;29.00;55.80;;;;;;5015615;28;20037;-73
2023/06/25 08:36:30;;;;;;;6.97;4.47;;;29.10;56.10;;;;;;5014782;28;20032;-72
2023/06/25 08:38:55;;;;;;;6.22;4.40;;;29.30;55.80;;;;;;5022280;28;20022;-73
2023/06/25 08:41:22;;;;;;;6.53;4.25;;;29.60;55.20;;;;;;5015182;28;20112;-73
2023/06/25 08:43:48;;;;;;;6.28;4.72;;;30.10;54.40;;;;;;5015100;28;20109;-73
2023/06/25 08:46:14;;;;;;;7.45;4.95;;;30.00;53.50;;;;;;5010933;28;20104;-73
2023/06/25 08:48:40;;;;;;;8.57;4.55;;;30.10;54.00;;;;;;5014718;28;20022;-73
2023/06/25 08:51:15;;;;;;;6.78;4.65;;;29.30;54.00;;;;;;5011834;28;20033;-73
2023/06/25 08:53:41;;;;;;;6.18;4.32;;;29.30;55.00;;;;;;5016554;28;20080;-73
2023/06/25 08:56:08;;;;;;;6.55;4.70;;;29.90;54.90;;;;;;5013302;28;20374;-72
2023/06/25 08:58:35;;;;;;;7.18;4.55;;;30.40;52.30;;;;;;5014683;28;20014;-73
2023/06/25 09:01:00;;;;;;;6.88;4.68;;;30.70;52.00;;;;;;5015917;28;20022;-73
2023/06/25 09:03:27;;;;;;;7.65;4.55;;;30.30;53.30;;;;;;5011316;28;20076;-73
2023/06/25 09:05:55;;;;;;;6.13;4.35;;;30.40;52.20;;;;;;5011270;28;20080;-73
2023/06/25 09:08:22;;;;;;;6.38;4.43;;;30.40;52.20;;;;;;5025299;28;20342;-74
2023/06/25 09:10:56;;;;;;;5.82;4.07;;;30.20;53.00;;;;;;5017163;28;20030;-73
2023/06/25 09:13:22;;;;;;;;;;;30.40;52.00;;;;;;5019716;28;20021;-73
2023/06/25 09:15:48;;;;;;;6.25;4.43;;;30.50;52.30;;;;;;5015481;28;19913;-73
2023/06/25 09:18:14;;;;;;;8.73;4.65;;;30.50;52.10;;;;;;5011993;28;20022;-74
2023/06/25 09:20:46;;;;;;;7.38;4.32;;;30.90;52.10;;;;;;4994396;28;20022;-74
2023/06/25 09:23:21;;;;;;;6.88;4.25;;;31.00;51.30;;;;;;5017235;28;20045;-74
2023/06/25 09:25:48;;;;;;;5.75;4.22;;;31.00;51.10;;;;;;4998849;28;20091;-74
2023/06/25 09:28:14;;;;;;;6.47;4.57;;;30.90;50.40;;;;;;4999385;28;20034;-73
2023/06/25 09:30:40;;;;;;;6.63;4.63;;;30.90;51.90;;;;;;4996614;28;20296;-73
2023/06/25 09:33:05;;;;;;;8.00;4.65;;;31.00;50.60;;;;;;5014138;28;20045;-73
2023/06/25 09:35:33;;;;;;;7.10;4.93;;;31.30;50.50;;;;;;5014108;28;20034;-73
2023/06/25 09:37:59;;;;;;;7.43;4.55;;;31.10;50.40;;;;;;5012850;28;20037;-72
2023/06/25 09:40:25;;;;;;;9.27;4.97;;;30.20;51.30;;;;;;5015422;28;20675;-72
2023/06/25 09:42:53;;;;;;;7.13;4.25;;;30.10;51.90;;;;;;5014151;28;20038;-72
2023/06/25 09:45:21;;;;;;;6.40;4.50;;;30.40;50.80;;;;;;5013992;28;20033;-73
2023/06/25 09:47:48;;;;;;;6.90;4.85;;;30.80;50.50;;;;;;4994585;28;20034;-74
2023/06/25 09:50:30;;;;;;;8.95;4.55;;;31.20;49.60;;;;;;5008157;28;20030;-74
2023/06/25 09:53:06;;;;;;;6.25;4.38;;;31.50;51.60;;;;;;5014282;28;20029;-73
2023/06/25 09:55:34;;;;;;;6.78;4.95;;;31.70;50.20;;;;;;5014502;28;20036;-73
2023/06/25 09:58:01;;;;;;;6.40;4.57;;;31.50;50.60;;;;;;5013930;28;20149;-73
2023/06/25 10:00:27;;;;;;;8.25;4.60;;;31.50;49.20;;;;;;5014876;28;20033;-73
2023/06/25 10:02:53;;;;;;;5.63;4.10;;;31.40;50.50;;;;;;5007096;28;20093;-73
2023/06/25 10:05:19;;;;;;;7.82;4.72;;;31.00;52.20;;;;;;4993453;28;20121;-73
2023/06/25 10:07:47;;;;;;;5.70;4.10;;;31.30;51.80;;;;;;5016107;28;20380;-72
2023/06/25 10:10:24;;;;;;;8.63;4.25;;;31.90;52.10;;;;;;5013209;28;20419;-73
2023/06/25 10:12:50;;;;;;;8.80;4.68;;;32.60;50.70;;;;;;4980349;28;20146;-72
2023/06/25 10:15:27;;;;;;;6.68;4.25;;;33.10;48.80;;;;;;5007430;28;20033;-73
2023/06/25 10:17:53;;;;;;;7.07;4.47;;;33.40;48.10;;;;;;5011824;28;20411;-72
2023/06/25 10:20:30;;;;;;;5.80;4.18;;;33.30;49.00;;;;;;5014137;28;20032;-73
2023/06/25 10:23:12;;;;;;;6.38;4.50;;;32.70;50.90;;;;;;5011016;28;20093;-73
2023/06/25 10:25:40;;;;;;;5.70;4.25;;;32.80;51.00;;;;;;5010216;28;20400;-72
2023/06/25 10:28:09;;;;;;;8.88;4.57;;;33.00;49.70;;;;;;5016094;28;20105;-73
2023/06/25 10:31:11;;;;;;;7.50;4.25;;;33.00;48.40;;;;;;5016018;28;20025;-73
2023/06/25 10:33:37;;;;;;;6.35;4.32;;;32.60;47.50;;;;;;5013172;28;20065;-73
2023/06/25 10:36:06;;;;;;;8.13;4.20;;;32.30;51.00;;;;;;5012645;28;20156;-73
2023/06/25 10:38:32;;;;;;;6.63;4.03;;;32.80;48.40;;;;;;5008660;28;20072;-73
2023/06/25 10:40:57;;;;;;;6.32;4.70;;;33.20;47.90;;;;;;5012692;28;20030;-73
2023/06/25 10:43:23;;;;;;;7.28;4.00;;;32.90;47.00;;;;;;4996923;28;20034;-73
2023/06/25 10:45:50;;;;;;;6.70;4.60;;;31.50;51.40;;;;;;5004839;28;20030;-73
2023/06/25 10:48:16;;;;;;;6.13;4.47;;;32.10;50.40;;;;;;5016512;28;20030;-73
2023/06/25 10:50:42;;;;;;;6.50;4.30;;;32.50;50.80;;;;;;5017005;28;20026;-73
2023/06/25 10:53:16;;;;;;;6.30;4.47;;;32.50;48.60;;;;;;5023003;28;20453;-73
2023/06/25 10:55:46;;;;;;;6.93;4.57;;;31.40;50.90;;;;;;5017722;28;20418;-73
2023/06/25 10:58:20;;;;;;;6.57;4.45;;;31.80;50.10;;;;;;5008643;28;20076;-73
2023/06/25 11:00:58;;;;;;;6.75;4.35;;;32.20;50.30;;;;;;5013782;28;20053;-74
2023/06/25 11:03:24;;;;;;;7.82;4.50;;;32.60;50.30;;;;;;4985803;28;20041;-72
2023/06/25 11:05:50;;;;;;;9.20;5.40;;;32.50;50.80;;;;;;5013370;28;20117;-73
2023/06/25 11:08:16;;;;;;;6.80;4.57;;;32.30;48.10;;;;;;5013587;28;20114;-73
2023/06/25 11:10:42;;;;;;;6.50;4.63;;;31.80;49.90;;;;;;5015489;28;20034;-72
2023/06/25 11:13:09;;;;;;;11.07;4.43;;;32.00;50.40;;;;;;4998133;28;20148;-72
2023/06/25 11:15:36;;;;;;;6.05;4.28;;;32.10;49.20;;;;;;5014721;28;20033;-72
2023/06/25 11:18:05;;;;;;;7.47;4.55;;;32.20;48.90;;;;;;5014788;28;20018;-73
2023/06/25 11:20:32;;;;;;;7.32;4.25;;;31.90;48.60;;;;;;5016193;28;20034;-73
2023/06/25 11:23:04;;;;;;;6.22;4.63;;;31.50;49.60;;;;;;5014611;28;20033;-73
2023/06/25 11:25:31;;;;;;;6.78;4.68;;;30.90;50.20;;;;;;5021866;28;20112;-72
2023/06/25 11:28:06;;;;;;;6.63;4.50;;;31.10;50.50;;;;;;5016178;28;20033;-73
2023/06/25 11:30:32;;;;;;;8.50;4.63;;;31.00;50.60;;;;;;5016167;28;20034;-72
2023/06/25 11:33:13;;;;;;;8.48;4.93;;;31.20;49.90;;;;;;5016033;28;20034;-73
2023/06/25 11:35:39;;;;;;;7.88;4.72;;;30.90;51.40;;;;;;5015918;28;20025;-72
2023/06/25 11:38:05;;;;;;;6.30;4.22;;;31.30;50.70;;;;;;5013942;28;20036;-73
2023/06/25 11:40:33;;;;;;;6.82;4.75;;;31.30;49.70;;;;;;5014716;28;20021;-72
2023/06/25 11:42:58;;;;;;;6.30;4.30;;;31.40;48.50;;;;;;5015711;28;20382;-72
2023/06/25 11:45:24;;;;;;;6.43;4.32;;;31.50;48.70;;;;;;5014412;28;20087;-73
2023/06/25 11:47:53;;;;;;;6.85;4.60;;;31.80;47.80;;;;;;5000937;28;20340;-72
2023/06/25 11:50:28;;;;;;;6.55;4.53;;;31.50;49.20;;;;;;4996920;28;20156;-73
2023/06/25 11:52:55;;;;;;;7.43;4.55;;;31.50;48.40;;;;;;5032406;28;20033;-73
2023/06/25 11:55:21;;;;;;;6.05;4.55;;;30.90;49.40;;;;;;5020442;28;20044;-73
2023/06/25 11:57:50;;;;;;;6.15;4.57;;;30.90;51.60;;;;;;5019632;28;20062;-73
2023/06/25 12:00:16;;;;;;;7.25;4.53;;;31.80;51.20;;;;;;5020818;28;20105;-73
2023/06/25 12:02:42;;;;;;;6.60;4.50;;;32.00;50.00;;;;;;5019016;28;20030;-73
2023/06/25 12:05:08;;;;;;;7.70;4.30;;;32.20;49.30;;;;;;5017246;28;20509;-73
2023/06/25 12:07:34;;;;;;;6.78;4.43;;;32.30;49.70;;;;;;4999030;28;20053;-73
2023/06/25 12:10:00;;;;;;;6.60;4.22;;;32.70;49.50;;;;;;5013904;28;20025;-73
2023/06/25 12:12:25;;;;;;;6.43;4.13;;;33.00;49.20;;;;;;5010345;28;20031;-73
2023/06/25 12:14:51;;;;;;;6.90;5.00;;;33.40;47.30;;;;;;5013859;28;20296;-73
2023/06/25 12:17:17;;;;;;;6.57;5.07;;;33.30;47.20;;;;;;5002073;28;20088;-72
2023/06/25 12:19:43;;;;;;;6.57;4.60;;;33.10;46.50;;;;;;5019564;28;20033;-73
2023/06/25 12:22:09;;;;;;;7.60;4.55;;;32.50;46.60;;;;;;5015489;28;20080;-73
2023/06/25 12:24:35;;;;;;;7.00;4.70;;;32.60;47.10;;;;;;5018503;28;20045;-73
2023/06/25 12:27:01;;;;;;;6.07;4.00;;;32.60;49.10;;;;;;5016787;28;20033;-73
2023/06/25 12:29:26;;;;;;;5.75;3.90;;;32.90;47.90;;;;;;5017826;28;20040;-72
2023/06/25 12:31:52;;;;;;;6.28;4.72;;;33.40;47.10;;;;;;5018423;28;20036;-73
2023/06/25 12:34:18;;;;;;;7.72;4.47;;;34.00;46.60;;;;;;5019331;28;20304;-73
2023/06/25 12:36:43;;;;;;;6.82;4.20;;;34.40;45.30;;;;;;5017124;28;20377;-73
2023/06/25 12:39:09;;;;;;;6.03;3.85;;;34.30;46.60;;;;;;5013316;28;20434;-73
2023/06/25 12:41:34;;;;;;;8.25;4.45;;;34.10;45.00;;;;;;5018221;28;20343;-72
2023/06/25 12:44:00;;;;;;;6.03;4.05;;;34.10;44.60;;;;;;5018097;28;20030;-73